sensor_id;sensor_type;location;lat;lon;timestamp;temperature;humidity
52189;DHT22;38162;45.926;13.608;2023-10-13T00:02:19;20.30;96.80
52189;DHT22;38162;45.926;13.608;2023-10-13T00:04:51;20.30;96.80
52189;DHT22;38162;45.926;13.608;2023-10-13T00:07:17;20.30;96.80
52189;DHT22;38162;45.926;13.608;2023-10-13T00:09:49;20.30;96.80
52189;DHT22;38162;45.926;13.608;2023-10-13T00:12:14;20.30;96.90
52189;DHT22;38162;45.926;13.608;2023-10-13T00:14:40;20.30;96.90
52189;DHT22;38162;45.926;13.608;2023-10-13T00:17:07;20.20;96.80
52189;DHT22;38162;45.926;13.608;2023-10-13T00:19:38;20.20;96.90
52189;DHT22;38162;45.926;13.608;2023-10-13T00:22:10;20.20;96.90
52189;DHT22;38162;45.926;13.608;2023-10-13T00:24:38;20.20;96.90
52189;DHT22;38162;45.926;13.608;2023-10-13T00:27:24;20.20;96.90
52189;DHT22;38162;45.926;13.608;2023-10-13T00:30:03;20.10;96.80
52189;DHT22;38162;45.926;13.608;2023-10-13T00:32:45;20.10;96.80
52189;DHT22;38162;45.926;13.608;2023-10-13T00:35:12;20.10;96.90
52189;DHT22;38162;45.926;13.608;2023-10-13T00:37:40;20.10;96.90
52189;DHT22;38162;45.926;13.608;2023-10-13T00:40:12;20.10;96.90
52189;DHT22;38162;45.926;13.608;2023-10-13T00:42:56;20.10;96.90
52189;DHT22;38162;45.926;13.608;2023-10-13T00:45:43;20.10;96.90
52189;DHT22;38162;45.926;13.608;2023-10-13T00:48:12;20.10;96.90
52189;DHT22;38162;45.926;13.608;2023-10-13T00:50:41;20.10;96.90
52189;DHT22;38162;45.926;13.608;2023-10-13T00:53:08;20.10;96.90
52189;DHT22;38162;45.926;13.608;2023-10-13T00:55:34;20.10;96.90
52189;DHT22;38162;45.926;13.608;2023-10-13T00:58:07;20.10;96.90
52189;DHT22;38162;45.926;13.608;2023-10-13T01:00:38;20.10;96.90
52189;DHT22;38162;45.926;13.608;2023-10-13T01:03:13;20.10;97.00
52189;DHT22;38162;45.926;13.608;2023-10-13T01:05:40;20.10;97.00
52189;DHT22;38162;45.926;13.608;2023-10-13T01:08:07;20.10;97.00
52189;DHT22;38162;45.926;13.608;2023-10-13T01:10:36;20.10;96.90
52189;DHT22;38162;45.926;13.608;2023-10-13T01:13:03;20.10;96.90
52189;DHT22;38162;45.926;13.608;2023-10-13T01:15:30;20.10;96.90
52189;DHT22;38162;45.926;13.608;2023-10-13T01:18:11;20.10;97.00
52189;DHT22;38162;45.926;13.608;2023-10-13T01:20:42;20.10;97.00
52189;DHT22;38162;45.926;13.608;2023-10-13T01:23:12;20.20;97.00
52189;DHT22;38162;45.926;13.608;2023-10-13T01:25:56;20.20;97.00
52189;DHT22;38162;45.926;13.608;2023-10-13T01:28:33;20.10;97.00
52189;DHT22;38162;45.926;13.608;2023-10-13T01:31:11;20.20;97.00
52189;DHT22;38162;45.926;13.608;2023-10-13T01:34:02;20.10;97.00
52189;DHT22;38162;45.926;13.608;2023-10-13T01:36:29;20.20;97.10
52189;DHT22;38162;45.926;13.608;2023-10-13T01:39:01;20.10;97.00
52189;DHT22;38162;45.926;13.608;2023-10-13T01:41:27;20.10;97.00
52189;DHT22;38162;45.926;13.608;2023-10-13T01:43:56;20.20;97.10
52189;DHT22;38162;45.926;13.608;2023-10-13T01:46:23;20.20;97.30
52189;DHT22;38162;45.926;13.608;2023-10-13T01:48:49;20.20;97.00
52189;DHT22;38162;45.926;13.608;2023-10-13T01:51:15;20.20;97.00
52189;DHT22;38162;45.926;13.608;2023-10-13T01:53:41;20.20;97.00
52189;DHT22;38162;45.926;13.608;2023-10-13T01:56:08;20.20;97.00
52189;DHT22;38162;45.926;13.608;2023-10-13T01:58:40;20.20;97.00
52189;DHT22;38162;45.926;13.608;2023-10-13T02:01:09;20.20;97.00
52189;DHT22;38162;45.926;13.608;2023-10-13T02:03:35;20.20;97.00
52189;DHT22;38162;45.926;13.608;2023-10-13T02:06:08;20.20;97.00
52189;DHT22;38162;45.926;13.608;2023-10-13T02:08:36;20.20;97.00
52189;DHT22;38162;45.926;13.608;2023-10-13T02:11:09;20.20;97.00
52189;DHT22;38162;45.926;13.608;2023-10-13T02:13:35;20.20;97.00
52189;DHT22;38162;45.926;13.608;2023-10-13T02:16:13;20.20;97.00
52189;DHT22;38162;45.926;13.608;2023-10-13T02:18:44;20.20;96.90
52189;DHT22;38162;45.926;13.608;2023-10-13T02:21:09;20.20;97.00
52189;DHT22;38162;45.926;13.608;2023-10-13T02:23:42;20.20;97.00
52189;DHT22;38162;45.926;13.608;2023-10-13T02:26:14;20.20;97.00
52189;DHT22;38162;45.926;13.608;2023-10-13T02:29:02;20.20;97.00
52189;DHT22;38162;45.926;13.608;2023-10-13T02:31:36;20.10;97.00
52189;DHT22;38162;45.926;13.608;2023-10-13T02:34:02;20.10;97.00
52189;DHT22;38162;45.926;13.608;2023-10-13T02:36:36;20.10;97.00
52189;DHT22;38162;45.926;13.608;2023-10-13T02:39:13;20.10;97.00
52189;DHT22;38162;45.926;13.608;2023-10-13T02:41:39;20.10;97.00
52189;DHT22;38162;45.926;13.608;2023-10-13T02:44:07;20.10;97.00
52189;DHT22;38162;45.926;13.608;2023-10-13T02:46:36;20.10;97.00
52189;DHT22;38162;45.926;13.608;2023-10-13T02:49:05;20.10;97.10
52189;DHT22;38162;45.926;13.608;2023-10-13T02:51:37;20.10;97.10
52189;DHT22;38162;45.926;13.608;2023-10-13T02:54:04;20.10;97.10
52189;DHT22;38162;45.926;13.608;2023-10-13T02:56:39;20.10;97.20
52189;DHT22;38162;45.926;13.608;2023-10-13T03:03:18;20.00;97.20
52189;DHT22;38162;45.926;13.608;2023-10-13T03:06:48;20.10;97.30
52189;DHT22;38162;45.926;13.608;2023-10-13T03:09:10;20.10;97.20
52189;DHT22;38162;45.926;13.608;2023-10-13T03:11:57;20.10;97.20
52189;DHT22;38162;45.926;13.608;2023-10-13T03:14:28;20.10;97.30
52189;DHT22;38162;45.926;13.608;2023-10-13T03:17:05;20.00;97.30
52189;DHT22;38162;45.926;13.608;2023-10-13T03:19:46;20.00;97.30
52189;DHT22;38162;45.926;13.608;2023-10-13T03:22:19;20.00;97.30
52189;DHT22;38162;45.926;13.608;2023-10-13T03:25:00;20.00;97.30
52189;DHT22;38162;45.926;13.608;2023-10-13T03:27:31;20.00;97.30
52189;DHT22;38162;45.926;13.608;2023-10-13T03:30:25;20.00;97.30
52189;DHT22;38162;45.926;13.608;2023-10-13T03:33:03;20.00;97.30
52189;DHT22;38162;45.926;13.608;2023-10-13T03:35:34;20.00;97.30
52189;DHT22;38162;45.926;13.608;2023-10-13T03:38:07;19.90;97.30
52189;DHT22;38162;45.926;13.608;2023-10-13T03:40:46;19.90;97.30
52189;DHT22;38162;45.926;13.608;2023-10-13T03:43:14;19.90;97.20
52189;DHT22;38162;45.926;13.608;2023-10-13T03:45:44;19.90;97.10
52189;DHT22;38162;45.926;13.608;2023-10-13T03:48:16;19.90;97.10
52189;DHT22;38162;45.926;13.608;2023-10-13T03:51:01;19.90;97.00
52189;DHT22;38162;45.926;13.608;2023-10-13T03:53:30;19.90;97.10
52189;DHT22;38162;45.926;13.608;2023-10-13T03:56:04;19.80;97.10
52189;DHT22;38162;45.926;13.608;2023-10-13T03:58:37;19.80;97.20
52189;DHT22;38162;45.926;13.608;2023-10-13T04:01:04;19.80;97.20
52189;DHT22;38162;45.926;13.608;2023-10-13T04:03:35;19.80;97.30
52189;DHT22;38162;45.926;13.608;2023-10-13T04:06:07;19.80;97.30
52189;DHT22;38162;45.926;13.608;2023-10-13T04:08:34;19.80;97.30
52189;DHT22;38162;45.926;13.608;2023-10-13T04:11:09;19.80;97.40
52189;DHT22;38162;45.926;13.608;2023-10-13T04:13:53;19.80;97.40
52189;DHT22;38162;45.926;13.608;2023-10-13T04:16:37;19.80;97.40
52189;DHT22;38162;45.926;13.608;2023-10-13T04:19:05;19.80;97.50
52189;DHT22;38162;45.926;13.608;2023-10-13T04:21:35;19.90;97.50
52189;DHT22;38162;45.926;13.608;2023-10-13T04:24:22;19.90;97.40
52189;DHT22;38162;45.926;13.608;2023-10-13T04:27:05;19.90;97.30
52189;DHT22;38162;45.926;13.608;2023-10-13T04:29:40;19.90;97.30
52189;DHT22;38162;45.926;13.608;2023-10-13T04:32:25;19.90;97.40
52189;DHT22;38162;45.926;13.608;2023-10-13T04:34:55;19.90;97.40
52189;DHT22;38162;45.926;13.608;2023-10-13T04:37:29;19.80;97.40
52189;DHT22;38162;45.926;13.608;2023-10-13T04:39:58;19.90;97.40
52189;DHT22;38162;45.926;13.608;2023-10-13T04:42:46;19.80;97.40
52189;DHT22;38162;45.926;13.608;2023-10-13T04:45:19;19.90;97.40
52189;DHT22;38162;45.926;13.608;2023-10-13T04:47:59;19.80;97.40
52189;DHT22;38162;45.926;13.608;2023-10-13T04:50:48;19.80;97.40
52189;DHT22;38162;45.926;13.608;2023-10-13T04:53:18;19.90;97.40
52189;DHT22;38162;45.926;13.608;2023-10-13T04:55:53;19.90;97.40
52189;DHT22;38162;45.926;13.608;2023-10-13T04:58:31;19.90;97.50
52189;DHT22;38162;45.926;13.608;2023-10-13T05:01:04;19.80;97.50
52189;DHT22;38162;45.926;13.608;2023-10-13T05:04:02;19.80;97.50
52189;DHT22;38162;45.926;13.608;2023-10-13T05:06:28;19.90;97.50
52189;DHT22;38162;45.926;13.608;2023-10-13T05:09:14;19.90;97.50
52189;DHT22;38162;45.926;13.608;2023-10-13T05:11:58;19.80;97.40
52189;DHT22;38162;45.926;13.608;2023-10-13T05:14:43;19.80;97.30
52189;DHT22;38162;45.926;13.608;2023-10-13T05:17:27;19.80;97.30
52189;DHT22;38162;45.926;13.608;2023-10-13T05:20:11;19.80;97.20
52189;DHT22;38162;45.926;13.608;2023-10-13T05:22:55;19.90;97.30
52189;DHT22;38162;45.926;13.608;2023-10-13T05:25:39;19.90;97.30
52189;DHT22;38162;45.926;13.608;2023-10-13T05:28:23;19.90;97.30
52189;DHT22;38162;45.926;13.608;2023-10-13T05:31:08;19.90;97.30
52189;DHT22;38162;45.926;13.608;2023-10-13T05:33:52;19.90;97.30
52189;DHT22;38162;45.926;13.608;2023-10-13T05:36:36;19.80;97.30
52189;DHT22;38162;45.926;13.608;2023-10-13T05:39:21;19.80;97.30
52189;DHT22;38162;45.926;13.608;2023-10-13T05:42:05;19.80;97.30
52189;DHT22;38162;45.926;13.608;2023-10-13T05:44:49;19.90;97.30
52189;DHT22;38162;45.926;13.608;2023-10-13T05:47:33;19.90;97.60
52189;DHT22;38162;45.926;13.608;2023-10-13T05:50:11;19.90;97.30
52189;DHT22;38162;45.926;13.608;2023-10-13T05:52:49;19.80;97.30
52189;DHT22;38162;45.926;13.608;2023-10-13T05:55:28;19.90;97.30
52189;DHT22;38162;45.926;13.608;2023-10-13T05:58:13;19.80;97.20
52189;DHT22;38162;45.926;13.608;2023-10-13T06:00:58;19.80;97.20
52189;DHT22;38162;45.926;13.608;2023-10-13T06:03:42;19.80;97.30
52189;DHT22;38162;45.926;13.608;2023-10-13T06:06:26;19.80;97.30
52189;DHT22;38162;45.926;13.608;2023-10-13T06:09:11;19.80;97.40
52189;DHT22;38162;45.926;13.608;2023-10-13T06:11:55;19.80;97.40
52189;DHT22;38162;45.926;13.608;2023-10-13T06:14:40;19.80;97.40
52189;DHT22;38162;45.926;13.608;2023-10-13T06:17:24;19.80;97.50
52189;DHT22;38162;45.926;13.608;2023-10-13T06:20:11;19.80;97.50
52189;DHT22;38162;45.926;13.608;2023-10-13T06:26:46;19.80;97.50
52189;DHT22;38162;45.926;13.608;2023-10-13T06:29:37;19.80;97.50
52189;DHT22;38162;45.926;13.608;2023-10-13T06:32:09;19.80;97.60
52189;DHT22;38162;45.926;13.608;2023-10-13T06:34:37;19.80;97.60
52189;DHT22;38162;45.926;13.608;2023-10-13T06:37:08;19.90;97.60
52189;DHT22;38162;45.926;13.608;2023-10-13T06:39:55;19.80;97.60
52189;DHT22;38162;45.926;13.608;2023-10-13T06:42:28;19.90;97.60
52189;DHT22;38162;45.926;13.608;2023-10-13T06:45:01;19.90;97.50
52189;DHT22;38162;45.926;13.608;2023-10-13T06:47:36;19.90;97.50
52189;DHT22;38162;45.926;13.608;2023-10-13T06:50:12;19.90;97.50
52189;DHT22;38162;45.926;13.608;2023-10-13T06:52:46;20.00;97.60
52189;DHT22;38162;45.926;13.608;2023-10-13T06:55:13;19.90;97.60
52189;DHT22;38162;45.926;13.608;2023-10-13T06:57:45;20.00;97.60
52189;DHT22;38162;45.926;13.608;2023-10-13T07:00:13;20.00;97.50
52189;DHT22;38162;45.926;13.608;2023-10-13T07:03:11;20.00;97.40
52189;DHT22;38162;45.926;13.608;2023-10-13T07:05:46;20.10;97.30
52189;DHT22;38162;45.926;13.608;2023-10-13T07:08:14;20.10;97.30
52189;DHT22;38162;45.926;13.608;2023-10-13T07:10:54;20.10;97.20
52189;DHT22;38162;45.926;13.608;2023-10-13T07:13:39;20.10;97.10
52189;DHT22;38162;45.926;13.608;2023-10-13T07:16:08;20.10;97.00
52189;DHT22;38162;45.926;13.608;2023-10-13T07:18:38;20.20;97.00
52189;DHT22;38162;45.926;13.608;2023-10-13T07:21:15;20.20;97.00
52189;DHT22;38162;45.926;13.608;2023-10-13T07:23:41;20.20;96.90
52189;DHT22;38162;45.926;13.608;2023-10-13T07:26:15;20.30;96.90
52189;DHT22;38162;45.926;13.608;2023-10-13T07:28:41;20.20;96.80
52189;DHT22;38162;45.926;13.608;2023-10-13T07:31:13;20.30;96.80
52189;DHT22;38162;45.926;13.608;2023-10-13T07:33:42;20.30;96.70
52189;DHT22;38162;45.926;13.608;2023-10-13T07:36:09;20.30;96.80
52189;DHT22;38162;45.926;13.608;2023-10-13T07:38:58;20.40;96.80
52189;DHT22;38162;45.926;13.608;2023-10-13T07:41:42;20.40;96.70
52189;DHT22;38162;45.926;13.608;2023-10-13T07:44:08;20.40;96.80
52189;DHT22;38162;45.926;13.608;2023-10-13T07:46:38;20.40;96.80
52189;DHT22;38162;45.926;13.608;2023-10-13T07:49:04;20.50;96.80
52189;DHT22;38162;45.926;13.608;2023-10-13T07:51:37;20.50;96.80
52189;DHT22;38162;45.926;13.608;2023-10-13T07:54:22;20.50;96.70
52189;DHT22;38162;45.926;13.608;2023-10-13T07:56:52;20.60;96.70
52189;DHT22;38162;45.926;13.608;2023-10-13T07:59:21;20.60;96.60
52189;DHT22;38162;45.926;13.608;2023-10-13T08:01:51;20.60;96.60
52189;DHT22;38162;45.926;13.608;2023-10-13T08:05:01;20.60;96.70
52189;DHT22;38162;45.926;13.608;2023-10-13T08:18:44;20.80;96.70
52189;DHT22;38162;45.926;13.608;2023-10-13T08:21:02;20.90;96.90
52189;DHT22;38162;45.926;13.608;2023-10-13T08:23:42;20.90;96.60
52189;DHT22;38162;45.926;13.608;2023-10-13T08:26:20;21.00;96.60
52189;DHT22;38162;45.926;13.608;2023-10-13T08:28:58;21.00;96.70
52189;DHT22;38162;45.926;13.608;2023-10-13T08:31:46;21.10;96.60
52189;DHT22;38162;45.926;13.608;2023-10-13T08:34:32;21.10;96.50
52189;DHT22;38162;45.926;13.608;2023-10-13T08:37:07;21.10;96.60
52189;DHT22;38162;45.926;13.608;2023-10-13T08:40:00;21.10;96.50
52189;DHT22;38162;45.926;13.608;2023-10-13T08:42:36;21.20;96.50
52189;DHT22;38162;45.926;13.608;2023-10-13T08:45:13;21.20;96.70
52189;DHT22;38162;45.926;13.608;2023-10-13T08:47:55;21.30;96.60
52189;DHT22;38162;45.926;13.608;2023-10-13T08:56:09;21.40;96.50
52189;DHT22;38162;45.926;13.608;2023-10-13T08:58:45;21.50;96.60
52189;DHT22;38162;45.926;13.608;2023-10-13T09:01:36;21.50;96.60
52189;DHT22;38162;45.926;13.608;2023-10-13T09:04:09;21.60;96.60
52189;DHT22;38162;45.926;13.608;2023-10-13T09:06:48;21.70;96.60
52189;DHT22;38162;45.926;13.608;2023-10-13T09:09:26;21.70;96.50
52189;DHT22;38162;45.926;13.608;2023-10-13T09:11:56;21.70;96.50
52189;DHT22;38162;45.926;13.608;2023-10-13T09:14:38;21.70;96.50
52189;DHT22;38162;45.926;13.608;2023-10-13T09:17:10;21.80;96.40
52189;DHT22;38162;45.926;13.608;2023-10-13T09:19:49;21.80;96.40
52189;DHT22;38162;45.926;13.608;2023-10-13T09:22:22;21.80;96.30
52189;DHT22;38162;45.926;13.608;2023-10-13T09:24:57;21.90;96.30
52189;DHT22;38162;45.926;13.608;2023-10-13T09:27:30;21.90;96.20
52189;DHT22;38162;45.926;13.608;2023-10-13T09:30:02;21.90;96.30
52189;DHT22;38162;45.926;13.608;2023-10-13T09:32:47;21.90;96.20
52189;DHT22;38162;45.926;13.608;2023-10-13T09:35:30;21.90;96.20
52189;DHT22;38162;45.926;13.608;2023-10-13T09:38:00;21.90;96.20
52189;DHT22;38162;45.926;13.608;2023-10-13T09:40:33;21.90;96.10
52189;DHT22;38162;45.926;13.608;2023-10-13T09:43:02;21.90;96.30
52189;DHT22;38162;45.926;13.608;2023-10-13T09:45:34;21.90;96.20
52189;DHT22;38162;45.926;13.608;2023-10-13T09:48:54;22.00;96.10
52189;DHT22;38162;45.926;13.608;2023-10-13T09:51:45;21.90;96.10
52189;DHT22;38162;45.926;13.608;2023-10-13T09:57:47;21.90;96.00
52189;DHT22;38162;45.926;13.608;2023-10-13T10:00:19;22.00;96.10
52189;DHT22;38162;45.926;13.608;2023-10-13T10:03:10;21.90;96.00
52189;DHT22;38162;45.926;13.608;2023-10-13T10:05:56;22.00;96.10
52189;DHT22;38162;45.926;13.608;2023-10-13T10:08:29;21.90;96.00
52189;DHT22;38162;45.926;13.608;2023-10-13T10:14:10;22.00;96.10
52189;DHT22;38162;45.926;13.608;2023-10-13T10:19:25;22.00;96.00
52189;DHT22;38162;45.926;13.608;2023-10-13T10:22:02;22.00;95.90
52189;DHT22;38162;45.926;13.608;2023-10-13T10:24:42;22.00;95.90
52189;DHT22;38162;45.926;13.608;2023-10-13T10:27:09;22.00;95.80
52189;DHT22;38162;45.926;13.608;2023-10-13T10:30:01;22.00;95.80
52189;DHT22;38162;45.926;13.608;2023-10-13T10:32:55;22.00;95.80
52189;DHT22;38162;45.926;13.608;2023-10-13T10:35:33;22.10;96.00
52189;DHT22;38162;45.926;13.608;2023-10-13T10:38:18;22.10;95.90
52189;DHT22;38162;45.926;13.608;2023-10-13T10:41:01;22.10;95.90
52189;DHT22;38162;45.926;13.608;2023-10-13T10:43:30;22.10;95.90
52189;DHT22;38162;45.926;13.608;2023-10-13T10:48:37;22.10;95.80
52189;DHT22;38162;45.926;13.608;2023-10-13T10:51:09;22.10;95.80
52189;DHT22;38162;45.926;13.608;2023-10-13T10:53:51;22.20;95.80
52189;DHT22;38162;45.926;13.608;2023-10-13T10:56:26;22.20;95.70
52189;DHT22;38162;45.926;13.608;2023-10-13T10:59:03;22.30;95.70
52189;DHT22;38162;45.926;13.608;2023-10-13T11:01:31;22.30;95.70
52189;DHT22;38162;45.926;13.608;2023-10-13T11:04:07;22.30;95.80
52189;DHT22;38162;45.926;13.608;2023-10-13T11:06:37;22.30;95.80
52189;DHT22;38162;45.926;13.608;2023-10-13T11:09:11;22.30;95.70
52189;DHT22;38162;45.926;13.608;2023-10-13T11:12:14;22.30;95.70
52189;DHT22;38162;45.926;13.608;2023-10-13T11:15:10;22.30;95.60
52189;DHT22;38162;45.926;13.608;2023-10-13T11:17:39;22.20;95.60
52189;DHT22;38162;45.926;13.608;2023-10-13T11:20:13;22.20;95.60
52189;DHT22;38162;45.926;13.608;2023-10-13T11:22:52;22.20;95.70
52189;DHT22;38162;45.926;13.608;2023-10-13T11:25:55;22.20;95.80
52189;DHT22;38162;45.926;13.608;2023-10-13T11:28:21;22.20;95.70
52189;DHT22;38162;45.926;13.608;2023-10-13T11:30:57;22.20;95.70
52189;DHT22;38162;45.926;13.608;2023-10-13T11:33:48;22.20;95.80
52189;DHT22;38162;45.926;13.608;2023-10-13T11:36:16;22.30;95.50
52189;DHT22;38162;45.926;13.608;2023-10-13T11:38:54;22.30;95.40
52189;DHT22;38162;45.926;13.608;2023-10-13T11:41:26;22.30;95.00
52189;DHT22;38162;45.926;13.608;2023-10-13T11:43:59;22.30;95.10
52189;DHT22;38162;45.926;13.608;2023-10-13T11:46:31;22.30;95.30
52189;DHT22;38162;45.926;13.608;2023-10-13T11:49:03;22.30;95.40
52189;DHT22;38162;45.926;13.608;2023-10-13T11:51:42;22.40;95.60
52189;DHT22;38162;45.926;13.608;2023-10-13T11:56:41;22.50;95.40
52189;DHT22;38162;45.926;13.608;2023-10-13T11:59:07;22.50;95.10
52189;DHT22;38162;45.926;13.608;2023-10-13T12:01:43;22.50;95.20
52189;DHT22;38162;45.926;13.608;2023-10-13T12:04:27;22.50;95.20
52189;DHT22;38162;45.926;13.608;2023-10-13T12:07:07;22.50;95.30
52189;DHT22;38162;45.926;13.608;2023-10-13T12:10:11;22.50;95.40
52189;DHT22;38162;45.926;13.608;2023-10-13T12:13:12;22.50;95.50
52189;DHT22;38162;45.926;13.608;2023-10-13T12:15:38;22.50;95.50
52189;DHT22;38162;45.926;13.608;2023-10-13T12:18:14;22.50;95.50
52189;DHT22;38162;45.926;13.608;2023-10-13T12:20:40;22.50;95.50
52189;DHT22;38162;45.926;13.608;2023-10-13T12:23:12;22.50;95.60
52189;DHT22;38162;45.926;13.608;2023-10-13T12:25:42;22.50;95.60
52189;DHT22;38162;45.926;13.608;2023-10-13T12:28:24;22.50;95.70
52189;DHT22;38162;45.926;13.608;2023-10-13T12:30:55;22.50;95.30
52189;DHT22;38162;45.926;13.608;2023-10-13T12:33:25;22.50;95.40
52189;DHT22;38162;45.926;13.608;2023-10-13T12:35:58;22.50;95.30
52189;DHT22;38162;45.926;13.608;2023-10-13T12:38:39;22.60;95.20
52189;DHT22;38162;45.926;13.608;2023-10-13T12:41:18;22.60;95.40
52189;DHT22;38162;45.926;13.608;2023-10-13T12:44:03;22.60;95.40
52189;DHT22;38162;45.926;13.608;2023-10-13T12:46:48;22.60;95.40
52189;DHT22;38162;45.926;13.608;2023-10-13T12:49:33;22.60;95.40
52189;DHT22;38162;45.926;13.608;2023-10-13T12:52:15;22.60;95.70
52189;DHT22;38162;45.926;13.608;2023-10-13T12:54:48;22.60;95.60
52189;DHT22;38162;45.926;13.608;2023-10-13T12:57:20;22.60;95.40
52189;DHT22;38162;45.926;13.608;2023-10-13T12:59:52;22.60;95.20
52189;DHT22;38162;45.926;13.608;2023-10-13T13:02:23;22.60;95.00
52189;DHT22;38162;45.926;13.608;2023-10-13T13:08:18;22.60;94.90
52189;DHT22;38162;45.926;13.608;2023-10-13T13:10:48;22.60;94.90
52189;DHT22;38162;45.926;13.608;2023-10-13T13:13:17;22.60;94.90
52189;DHT22;38162;45.926;13.608;2023-10-13T13:15:53;22.60;94.80
52189;DHT22;38162;45.926;13.608;2023-10-13T13:18:19;22.60;94.80
52189;DHT22;38162;45.926;13.608;2023-10-13T13:20:45;22.60;94.70
52189;DHT22;38162;45.926;13.608;2023-10-13T13:23:21;22.70;94.80
52189;DHT22;38162;45.926;13.608;2023-10-13T13:25:47;22.70;94.80
52189;DHT22;38162;45.926;13.608;2023-10-13T13:28:14;22.70;94.70
52189;DHT22;38162;45.926;13.608;2023-10-13T13:30:44;22.70;94.60
52189;DHT22;38162;45.926;13.608;2023-10-13T13:33:09;22.70;94.50
52189;DHT22;38162;45.926;13.608;2023-10-13T13:35:39;22.70;94.50
52189;DHT22;38162;45.926;13.608;2023-10-13T13:38:08;22.70;94.60
52189;DHT22;38162;45.926;13.608;2023-10-13T13:40:47;22.70;94.50
52189;DHT22;38162;45.926;13.608;2023-10-13T13:43:15;22.70;94.40
52189;DHT22;38162;45.926;13.608;2023-10-13T13:45:59;22.70;94.40
52189;DHT22;38162;45.926;13.608;2023-10-13T13:48:29;22.60;94.50
52189;DHT22;38162;45.926;13.608;2023-10-13T13:50:55;22.70;94.50
52189;DHT22;38162;45.926;13.608;2023-10-13T13:53:30;22.70;94.50
52189;DHT22;38162;45.926;13.608;2023-10-13T13:56:06;22.70;94.40
52189;DHT22;38162;45.926;13.608;2023-10-13T13:58:32;22.70;94.30
52189;DHT22;38162;45.926;13.608;2023-10-13T14:01:02;22.70;94.30
52189;DHT22;38162;45.926;13.608;2023-10-13T14:03:45;22.70;94.40
52189;DHT22;38162;45.926;13.608;2023-10-13T14:06:15;22.70;94.50
52189;DHT22;38162;45.926;13.608;2023-10-13T14:08:51;22.70;94.50
52189;DHT22;38162;45.926;13.608;2023-10-13T14:11:21;22.70;94.50
52189;DHT22;38162;45.926;13.608;2023-10-13T14:16:41;22.80;94.50
52189;DHT22;38162;45.926;13.608;2023-10-13T14:19:11;22.80;94.50
52189;DHT22;38162;45.926;13.608;2023-10-13T14:21:38;22.80;94.60
52189;DHT22;38162;45.926;13.608;2023-10-13T14:24:04;22.80;94.80
52189;DHT22;38162;45.926;13.608;2023-10-13T14:26:39;22.80;94.80
52189;DHT22;38162;45.926;13.608;2023-10-13T14:29:05;22.80;94.70
52189;DHT22;38162;45.926;13.608;2023-10-13T14:31:51;22.80;94.90
52189;DHT22;38162;45.926;13.608;2023-10-13T14:34:58;22.80;95.00
52189;DHT22;38162;45.926;13.608;2023-10-13T14:41:04;22.80;94.90
52189;DHT22;38162;45.926;13.608;2023-10-13T14:43:31;22.80;94.50
52189;DHT22;38162;45.926;13.608;2023-10-13T14:45:57;22.80;94.50
52189;DHT22;38162;45.926;13.608;2023-10-13T14:48:26;22.80;94.70
52189;DHT22;38162;45.926;13.608;2023-10-13T14:50:51;22.90;94.90
52189;DHT22;38162;45.926;13.608;2023-10-13T14:53:18;22.80;95.00
52189;DHT22;38162;45.926;13.608;2023-10-13T14:55:47;22.90;95.10
52189;DHT22;38162;45.926;13.608;2023-10-13T14:58:13;22.90;95.20
52189;DHT22;38162;45.926;13.608;2023-10-13T15:00:42;22.90;95.30
52189;DHT22;38162;45.926;13.608;2023-10-13T15:03:11;22.80;95.30
52189;DHT22;38162;45.926;13.608;2023-10-13T15:05:40;22.80;95.40
52189;DHT22;38162;45.926;13.608;2023-10-13T15:08:09;22.80;95.80
52189;DHT22;38162;45.926;13.608;2023-10-13T15:10:35;22.80;95.60
52189;DHT22;38162;45.926;13.608;2023-10-13T15:13:03;22.80;95.60
52189;DHT22;38162;45.926;13.608;2023-10-13T15:15:32;22.80;95.70
52189;DHT22;38162;45.926;13.608;2023-10-13T15:17:58;22.80;95.70
52189;DHT22;38162;45.926;13.608;2023-10-13T15:20:24;22.80;95.70
52189;DHT22;38162;45.926;13.608;2023-10-13T15:22:49;22.80;95.80
52189;DHT22;38162;45.926;13.608;2023-10-13T15:25:19;22.70;95.70
52189;DHT22;38162;45.926;13.608;2023-10-13T15:28:08;22.70;95.70
52189;DHT22;38162;45.926;13.608;2023-10-13T15:30:35;22.70;95.70
52189;DHT22;38162;45.926;13.608;2023-10-13T15:33:13;22.70;95.70
52189;DHT22;38162;45.926;13.608;2023-10-13T15:35:40;22.70;95.80
52189;DHT22;38162;45.926;13.608;2023-10-13T15:38:09;22.70;95.90
52189;DHT22;38162;45.926;13.608;2023-10-13T15:40:41;22.70;95.90
52189;DHT22;38162;45.926;13.608;2023-10-13T15:43:08;22.70;95.90
52189;DHT22;38162;45.926;13.608;2023-10-13T15:45:34;22.60;95.90
52189;DHT22;38162;45.926;13.608;2023-10-13T15:48:05;22.60;95.90
52189;DHT22;38162;45.926;13.608;2023-10-13T15:50:37;22.60;95.90
52189;DHT22;38162;45.926;13.608;2023-10-13T15:53:08;22.60;95.90
52189;DHT22;38162;45.926;13.608;2023-10-13T15:55:37;22.60;95.90
52189;DHT22;38162;45.926;13.608;2023-10-13T15:58:04;22.60;96.00
52189;DHT22;38162;45.926;13.608;2023-10-13T16:00:34;22.60;96.10
52189;DHT22;38162;45.926;13.608;2023-10-13T16:03:00;22.60;96.10
52189;DHT22;38162;45.926;13.608;2023-10-13T16:05:30;22.60;96.10
52189;DHT22;38162;45.926;13.608;2023-10-13T16:08:03;22.50;96.20
52189;DHT22;38162;45.926;13.608;2023-10-13T16:10:32;22.50;96.20
52189;DHT22;38162;45.926;13.608;2023-10-13T16:12:59;22.50;96.20
52189;DHT22;38162;45.926;13.608;2023-10-13T16:15:28;22.50;96.20
52189;DHT22;38162;45.926;13.608;2023-10-13T16:17:53;22.50;96.30
52189;DHT22;38162;45.926;13.608;2023-10-13T16:20:20;22.50;96.40
52189;DHT22;38162;45.926;13.608;2023-10-13T16:22:47;22.50;96.40
52189;DHT22;38162;45.926;13.608;2023-10-13T16:25:15;22.50;96.40
52189;DHT22;38162;45.926;13.608;2023-10-13T16:27:42;22.40;96.40
52189;DHT22;38162;45.926;13.608;2023-10-13T16:30:29;22.50;96.50
52189;DHT22;38162;45.926;13.608;2023-10-13T16:33:01;22.50;96.50
52189;DHT22;38162;45.926;13.608;2023-10-13T16:35:28;22.40;96.60
52189;DHT22;38162;45.926;13.608;2023-10-13T16:37:59;22.40;96.50
52189;DHT22;38162;45.926;13.608;2023-10-13T16:40:32;22.40;96.50
52189;DHT22;38162;45.926;13.608;2023-10-13T16:42:58;22.40;96.50
52189;DHT22;38162;45.926;13.608;2023-10-13T16:45:25;22.40;96.60
52189;DHT22;38162;45.926;13.608;2023-10-13T16:47:56;22.40;96.70
52189;DHT22;38162;45.926;13.608;2023-10-13T16:50:22;22.40;96.70
52189;DHT22;38162;45.926;13.608;2023-10-13T16:52:48;22.40;96.70